Time;durP1;ratioP1;P1;durP2;ratioP2;P2;SDS_P1;SDS_P2;PMS_P1;PMS_P2;Temp;Humidity;BMP_temperature;BMP_pressure;BME280_temperature;BME280_humidity;BME280_pressure;Samples;Min_cycle;Max_cycle;Signal;HPM_P1;HPM_P2
2023/01/12 00:01:14;;;;;;;;;;;;;;;;;;4963150;28;19996;-83
2023/01/12 00:03:40;;;;;;;;;;;;;;;;;;4972222;28;20009;-82
2023/01/12 00:06:06;;;;;;;;;;;;;;;;;;4924955;28;20540;-83
2023/01/12 00:08:32;;;;;;;;;;;;;;;;;;4939627;28;19932;-83
2023/01/12 00:13:34;;;;;;;;;;;;;;;;;;5475086;22;21018;-82
2023/01/12 00:18:45;;;;;;;;;;;;;;;;;;5004773;28;20015;-82
2023/01/12 00:21:11;;;;;;;;;;;;;;;;;;5013040;28;19994;-81
2023/01/12 00:23:37;;;;;;;;;;;;;;;;;;5006719;28;21116;-82
2023/01/12 00:26:03;;;;;;;;;;;;;;;;;;5004772;28;19929;-81
2023/01/12 00:28:29;;;;;;;;;;;;;;;;;;4995851;28;19991;-80
2023/01/12 00:30:55;;;;;;;;;;;;;;;;;;5007713;28;19924;-82
2023/01/12 00:33:21;;;;;;;;;;;;;;;;;;5029978;28;19959;-82
2023/01/12 00:35:47;;;;;;;;;;;;;;;;;;5025780;28;19925;-81
2023/01/12 00:38:13;;;;;;;;;;;;;;;;;;5009557;28;20008;-82
2023/01/12 00:40:39;;;;;;;;;;;;;;;;;;5005042;28;19925;-82
2023/01/12 00:45:49;;;;;;;;;;;;;;;;;;5014930;28;19932;-81
2023/01/12 00:48:15;;;;;;;;;;;;;;;;;;5010413;28;19924;-82
2023/01/12 00:50:41;;;;;;;;;;;;;;;;;;5023268;28;21737;-82
2023/01/12 00:53:07;;;;;;;;;;;;;;;;;;5008378;28;20040;-80
2023/01/12 00:55:33;;;;;;;;;;;;;;;;;;5013287;28;19980;-80
2023/01/12 00:57:59;;;;;;;;;;;;;;;;;;5007633;28;19925;-82
2023/01/12 01:00:25;;;;;;;;;;;;;;;;;;5027215;28;20055;-80
2023/01/12 01:02:51;;;;;;;;;;;;;;;;;;5029079;28;19951;-80
2023/01/12 01:05:17;;;;;;;;;;;;;;;;;;5026500;28;19955;-81
2023/01/12 01:07:45;;;;;;;;;;;;;;;;;;5006730;28;19939;-81
2023/01/12 01:10:11;;;;;;;;;;;;;;;;;;5005851;28;19970;-82
2023/01/12 01:12:37;;;;;;;;;;;;;;;;;;5007053;28;19932;-81
2023/01/12 01:15:02;;;;;;;;;;;;;;;;;;5005539;28;19924;-80
2023/01/12 01:17:28;;;;;;;;;;;;;;;;;;5013164;28;19932;-81
2023/01/12 01:19:54;;;;;;;;;;;;;;;;;;5021939;28;19963;-81
2023/01/12 01:22:20;;;;;;;;;;;;;;;;;;5008695;28;19924;-82
2023/01/12 01:24:46;;;;;;;;;;;;;;;;;;4998322;28;19925;-80
2023/01/12 01:27:12;;;;;;;;;;;;;;;;;;5006654;28;19925;-80
2023/01/12 01:29:38;;;;;;;;;;;;;;;;;;5012439;28;20375;-80
2023/01/12 01:32:04;;;;;;;;;;;;;;;;;;5025088;28;20578;-80
2023/01/12 01:34:30;;;;;;;;;;;;;;;;;;5021801;28;19976;-80
2023/01/12 01:36:58;;;;;;;;;;;;;;;;;;5023167;28;20157;-80
2023/01/12 01:39:23;;;;;;;;;;;;;;;;;;5005521;28;19932;-79
2023/01/12 01:41:49;;;;;;;;;;;;;;;;;;5022221;28;19924;-80
2023/01/12 01:44:15;;;;;;;;;;;;;;;;;;5006166;28;19920;-81
2023/01/12 01:46:41;;;;;;;;;;;;;;;;;;5005696;28;19928;-80
2023/01/12 01:49:07;;;;;;;;;;;;;;;;;;5006651;28;20051;-81
2023/01/12 01:51:33;;;;;;;;;;;;;;;;;;5004515;28;20429;-81
2023/01/12 01:54:00;;;;;;;;;;;;;;;;;;5006750;28;19924;-81
2023/01/12 01:56:26;;;;;;;;;;;;;;;;;;5004085;28;19956;-81
2023/01/12 01:58:52;;;;;;;;;;;;;;;;;;5005102;28;20295;-81
2023/01/12 02:01:18;;;;;;;;;;;;;;;;;;5000857;28;19925;-81
2023/01/12 02:03:44;;;;;;;;;;;;;;;;;;5008958;28;19932;-81
2023/01/12 02:06:10;;;;;;;;;;;;;;;;;;5010640;28;19939;-80
2023/01/12 02:08:36;;;;;;;;;;;;;;;;;;5003305;28;19939;-81
2023/01/12 02:11:02;;;;;;;;;;;;;;;;;;5004082;28;20363;-81
2023/01/12 02:16:19;;;;;;;;;;;;;;;;;;5022165;28;20000;-81
2023/01/12 02:18:45;;;;;;;;;;;;;;;;;;5009371;28;20022;-80
2023/01/12 02:21:11;;;;;;;;;;;;;;;;;;5009316;28;19920;-81
2023/01/12 02:23:37;;;;;;;;;;;;;;;;;;5010482;28;19935;-81
2023/01/12 02:26:03;;;;;;;;;;;;;;;;;;5009293;28;20502;-82
2023/01/12 02:28:29;;;;;;;;;;;;;;;;;;4994221;28;20000;-82
2023/01/12 02:30:55;;;;;;;;;;;;;;;;;;5009967;28;19932;-80
2023/01/12 02:33:21;;;;;;;;;;;;;;;;;;5009175;28;20355;-82
2023/01/12 02:35:47;;;;;;;;;;;;;;;;;;5016353;28;20377;-82
2023/01/12 02:38:13;;;;;;;;;;;;;;;;;;5025658;28;21675;-82
2023/01/12 02:40:39;;;;;;;;;;;;;;;;;;5010814;28;20469;-83
2023/01/12 02:43:04;;;;;;;;;;;;;;;;;;5013030;28;19928;-82
2023/01/12 02:45:30;;;;;;;;;;;;;;;;;;5011441;28;19921;-83
2023/01/12 02:47:56;;;;;;;;;;;;;;;;;;5013399;28;19936;-83
2023/01/12 02:50:22;;;;;;;;;;;;;;;;;;5007529;28;19944;-83
2023/01/12 02:52:48;;;;;;;;;;;;;;;;;;5009205;28;19936;-83
2023/01/12 02:55:14;;;;;;;;;;;;;;;;;;5026313;28;19998;-83
2023/01/12 02:57:40;;;;;;;;;;;;;;;;;;5013398;28;19920;-82
2023/01/12 03:00:06;;;;;;;;;;;;;;;;;;5008446;28;19921;-82
2023/01/12 03:02:32;;;;;;;;;;;;;;;;;;5011191;28;19976;-83
2023/01/12 03:04:58;;;;;;;;;;;;;;;;;;5009342;28;20019;-82
2023/01/12 03:07:24;;;;;;;;;;;;;;;;;;5017407;28;19928;-82
2023/01/12 03:09:50;;;;;;;;;;;;;;;;;;5007731;28;19943;-83
2023/01/12 03:12:16;;;;;;;;;;;;;;;;;;5009894;28;19924;-83
2023/01/12 03:14:42;;;;;;;;;;;;;;;;;;5008896;28;19936;-83
2023/01/12 03:17:08;;;;;;;;;;;;;;;;;;5009839;28;20361;-84
2023/01/12 03:19:34;;;;;;;;;;;;;;;;;;4996467;28;19925;-83
2023/01/12 03:22:00;;;;;;;;;;;;;;;;;;5009849;28;20417;-82
2023/01/12 03:24:25;;;;;;;;;;;;;;;;;;5010367;28;19924;-82
2023/01/12 03:26:52;;;;;;;;;;;;;;;;;;5017355;28;19929;-82
2023/01/12 03:29:18;;;;;;;;;;;;;;;;;;5017913;28;19920;-82
2023/01/12 03:31:44;;;;;;;;;;;;;;;;;;5015477;28;20019;-81
2023/01/12 03:34:10;;;;;;;;;;;;;;;;;;5017657;28;19928;-82
2023/01/12 03:36:36;;;;;;;;;;;;;;;;;;5017529;28;19921;-82
2023/01/12 03:39:02;;;;;;;;;;;;;;;;;;5017759;28;19921;-82
2023/01/12 03:41:28;;;;;;;;;;;;;;;;;;5024026;28;19950;-76
2023/01/12 03:43:54;;;;;;;;;;;;;;;;;;5006569;28;20027;-76
2023/01/12 03:46:21;;;;;;;;;;;;;;;;;;5010387;28;19929;-76
2023/01/12 03:48:47;;;;;;;;;;;;;;;;;;5006799;28;19929;-75
2023/01/12 03:51:13;;;;;;;;;;;;;;;;;;5024126;28;20045;-76
2023/01/12 03:53:39;;;;;;;;;;;;;;;;;;5006704;28;20385;-76
2023/01/12 03:56:05;;;;;;;;;;;;;;;;;;5007064;28;20468;-76
2023/01/12 03:58:33;;;;;;;;;;;;;;;;;;5007476;28;19921;-75
2023/01/12 04:00:59;;;;;;;;;;;;;;;;;;4994745;28;19929;-77
2023/01/12 04:03:25;;;;;;;;;;;;;;;;;;4989815;28;19943;-76
2023/01/12 04:05:51;;;;;;;;;;;;;;;;;;4989259;28;19932;-76
2023/01/12 04:08:17;;;;;;;;;;;;;;;;;;5005897;28;19981;-76
2023/01/12 04:10:43;;;;;;;;;;;;;;;;;;5006481;28;19935;-76
2023/01/12 04:13:09;;;;;;;;;;;;;;;;;;5011267;28;19964;-76
2023/01/12 04:15:37;;;;;;;;;;;;;;;;;;5005739;28;19931;-76
2023/01/12 04:18:03;;;;;;;;;;;;;;;;;;5005826;28;20453;-76
2023/01/12 04:20:29;;;;;;;;;;;;;;;;;;5004899;28;20750;-77
2023/01/12 04:22:55;;;;;;;;;;;;;;;;;;5007422;28;19925;-76
2023/01/12 04:25:20;;;;;;;;;;;;;;;;;;5005153;28;19933;-77
2023/01/12 04:27:46;;;;;;;;;;;;;;;;;;5006461;28;20295;-77
2023/01/12 04:30:12;;;;;;;;;;;;;;;;;;5006113;28;19932;-76
2023/01/12 04:32:38;;;;;;;;;;;;;;;;;;4992394;28;20906;-76
2023/01/12 04:35:05;;;;;;;;;;;;;;;;;;5011909;28;19931;-76
2023/01/12 04:37:31;;;;;;;;;;;;;;;;;;5005890;28;19929;-77
2023/01/12 04:39:57;;;;;;;;;;;;;;;;;;4990346;28;19921;-76
2023/01/12 04:45:08;;;;;;;;;;;;;;;;;;5006378;28;19983;-76
2023/01/12 04:47:34;;;;;;;;;;;;;;;;;;5005498;28;20809;-76
2023/01/12 04:49:59;;;;;;;;;;;;;;;;;;5005469;28;19920;-76
2023/01/12 04:52:25;;;;;;;;;;;;;;;;;;5004648;28;19936;-77
2023/01/12 04:54:51;;;;;;;;;;;;;;;;;;5005448;28;19921;-77
2023/01/12 04:57:17;;;;;;;;;;;;;;;;;;4995544;28;19921;-76
2023/01/12 04:59:43;;;;;;;;;;;;;;;;;;5007080;28;19924;-76
2023/01/12 05:02:09;;;;;;;;;;;;;;;;;;5004727;28;19927;-76
2023/01/12 05:04:35;;;;;;;;;;;;;;;;;;5011855;28;19960;-76
2023/01/12 05:07:01;;;;;;;;;;;;;;;;;;5004670;28;21273;-77
2023/01/12 05:12:12;;;;;;;;;;;;;;;;;;5020796;28;20039;-76
2023/01/12 05:14:38;;;;;;;;;;;;;;;;;;5022096;28;19979;-76
2023/01/12 05:17:04;;;;;;;;;;;;;;;;;;5003996;28;19924;-76
2023/01/12 05:19:30;;;;;;;;;;;;;;;;;;5009766;28;19924;-77
2023/01/12 05:21:56;;;;;;;;;;;;;;;;;;5020961;28;19924;-78
2023/01/12 05:24:22;;;;;;;;;;;;;;;;;;4988125;28;19921;-77
2023/01/12 05:26:48;;;;;;;;;;;;;;;;;;5003716;28;20313;-76
2023/01/12 05:29:14;;;;;;;;;;;;;;;;;;4990668;28;20796;-76
2023/01/12 05:31:40;;;;;;;;;;;;;;;;;;5005167;28;19925;-76
2023/01/12 05:34:06;;;;;;;;;;;;;;;;;;5007455;28;21541;-85
2023/01/12 05:36:32;;;;;;;;;;;;;;;;;;5005540;28;20015;-81
2023/01/12 05:38:58;;;;;;;;;;;;;;;;;;5005242;28;19925;-80
2023/01/12 05:41:24;;;;;;;;;;;;;;;;;;5005962;28;19924;-80
2023/01/12 05:43:50;;;;;;;;;;;;;;;;;;5005133;28;20394;-79
2023/01/12 05:46:16;;;;;;;;;;;;;;;;;;5003767;28;19972;-79
2023/01/12 05:48:42;;;;;;;;;;;;;;;;;;5006354;28;19921;-80
2023/01/12 05:51:08;;;;;;;;;;;;;;;;;;5013711;28;19928;-79
2023/01/12 05:53:34;;;;;;;;;;;;;;;;;;5025560;28;20011;-87
2023/01/12 05:56:00;;;;;;;;;;;;;;;;;;5015407;28;19921;-86
2023/01/12 05:58:26;;;;;;;;;;;;;;;;;;5026771;28;19978;-88
2023/01/12 06:00:52;;;;;;;;;;;;;;;;;;5020655;28;20043;-85
2023/01/12 06:03:17;;;;;;;;;;;;;;;;;;5004501;28;19924;-84
2023/01/12 06:05:43;;;;;;;;;;;;;;;;;;5011954;28;19929;-85
2023/01/12 06:08:09;;;;;;;;;;;;;;;;;;4994332;28;19928;-84
2023/01/12 06:10:38;;;;;;;;;;;;;;;;;;5015426;28;19924;-84
2023/01/12 06:15:48;;;;;;;;;;;;;;;;;;5021418;28;19931;-80
2023/01/12 06:18:16;;;;;;;;;;;;;;;;;;5022447;28;19929;-80
2023/01/12 06:20:42;;;;;;;;;;;;;;;;;;5009695;28;19995;-80
2023/01/12 06:23:08;;;;;;;;;;;;;;;;;;5026841;28;20134;-81
2023/01/12 06:25:34;;;;;;;;;;;;;;;;;;5029241;28;19967;-80
2023/01/12 06:27:59;;;;;;;;;;;;;;;;;;5026007;28;20197;-79
2023/01/12 06:30:25;;;;;;;;;;;;;;;;;;5009295;28;20347;-83
2023/01/12 06:32:51;;;;;;;;;;;;;;;;;;5014179;28;20019;-89
2023/01/12 06:35:17;;;;;;;;;;;;;;;;;;5036782;28;20337;-91
2023/01/12 06:37:43;;;;;;;;;;;;;;;;;;5034461;28;19925;-89
2023/01/12 06:40:09;;;;;;;;;;;;;;;;;;5035057;28;19925;-92
2023/01/12 06:42:39;;;;;;;;;;;;;;;;;;5036016;28;19927;-91
2023/01/12 06:45:05;;;;;;;;;;;;;;;;;;5035068;28;20358;-92
2023/01/12 06:47:31;;;;;;;;;;;;;;;;;;5020954;28;19935;-93
2023/01/12 06:49:57;;;;;;;;;;;;;;;;;;5043259;28;20151;-93
2023/01/12 06:52:23;;;;;;;;;;;;;;;;;;5013060;28;19934;-75
2023/01/12 06:54:49;;;;;;;;;;;;;;;;;;5009112;28;19936;-77
2023/01/12 06:57:15;;;;;;;;;;;;;;;;;;5009308;28;19920;-76
2023/01/12 06:59:41;;;;;;;;;;;;;;;;;;5008382;28;19920;-76
2023/01/12 07:02:07;;;;;;;;;;;;;;;;;;5008428;28;19971;-76
2023/01/12 07:04:33;;;;;;;;;;;;;;;;;;5005739;28;20431;-77
2023/01/12 07:06:58;;;;;;;;;;;;;;;;;;5007089;28;20294;-76
2023/01/12 07:09:24;;;;;;;;;;;;;;;;;;5013380;28;19928;-90
2023/01/12 07:11:50;;;;;;;;;;;;;;;;;;5036991;28;20458;-89
2023/01/12 07:14:16;;;;;;;;;;;;;;;;;;5030137;28;20337;-90
2023/01/12 07:16:42;;;;;;;;;;;;;;;;;;5014179;28;20279;-89
2023/01/12 07:19:08;;;;;;;;;;;;;;;;;;5014816;28;19925;-90
2023/01/12 07:21:34;;;;;;;;;;;;;;;;;;5015626;28;19931;-90
2023/01/12 07:24:00;;;;;;;;;;;;;;;;;;5015490;28;20089;-92
2023/01/12 07:26:26;;;;;;;;;;;;;;;;;;5033332;28;19936;-90
2023/01/12 07:28:52;;;;;;;;;;;;;;;;;;5018794;28;20125;-77
2023/01/12 07:31:18;;;;;;;;;;;;;;;;;;5008595;28;19925;-78
2023/01/12 07:33:44;;;;;;;;;;;;;;;;;;5025730;28;21415;-79
2023/01/12 07:36:10;;;;;;;;;;;;;;;;;;5026345;28;19924;-78
2023/01/12 07:38:37;;;;;;;;;;;;;;;;;;5027911;28;19925;-79
2023/01/12 07:41:02;;;;;;;;;;;;;;;;;;5009249;28;19990;-78
2023/01/12 07:43:29;;;;;;;;;;;;;;;;;;5007977;28;20266;-79
2023/01/12 07:45:55;;;;;;;;;;;;;;;;;;4996526;28;19931;-78
2023/01/12 07:48:21;;;;;;;;;;;;;;;;;;5028228;28;19937;-80
2023/01/12 07:50:47;;;;;;;;;;;;;;;;;;5008466;28;19925;-82
2023/01/12 07:53:13;;;;;;;;;;;;;;;;;;5009218;28;19920;-81
2023/01/12 07:55:42;;;;;;;;;;;;;;;;;;5007633;28;19959;-81
2023/01/12 07:58:08;;;;;;;;;;;;;;;;;;5007106;28;19924;-80
2023/01/12 08:00:34;;;;;;;;;;;;;;;;;;5011449;28;19925;-81
2023/01/12 08:03:00;;;;;;;;;;;;;;;;;;5024690;28;19924;-81
2023/01/12 08:05:26;;;;;;;;;;;;;;;;;;5007335;28;20401;-83
2023/01/12 08:07:52;;;;;;;;;;;;;;;;;;5008711;28;19962;-79
2023/01/12 08:10:18;;;;;;;;;;;;;;;;;;4994956;28;20680;-79
2023/01/12 08:12:44;;;;;;;;;;;;;;;;;;5012601;28;19925;-78
2023/01/12 08:15:10;;;;;;;;;;;;;;;;;;5023063;28;19929;-78
2023/01/12 08:17:36;;;;;;;;;;;;;;;;;;5006726;28;19924;-78
2023/01/12 08:20:02;;;;;;;;;;;;;;;;;;5012534;28;19962;-78
2023/01/12 08:22:28;;;;;;;;;;;;;;;;;;5026236;28;21592;-82
2023/01/12 08:24:54;;;;;;;;;;;;;;;;;;5026375;28;20004;-76
2023/01/12 08:27:20;;;;;;;;;;;;;;;;;;5008154;28;20455;-80
2023/01/12 08:29:46;;;;;;;;;;;;;;;;;;4992144;28;19920;-82
2023/01/12 08:32:12;;;;;;;;;;;;;;;;;;5006579;28;19925;-76
2023/01/12 08:34:38;;;;;;;;;;;;;;;;;;5023756;28;20771;-76
2023/01/12 08:37:03;;;;;;;;;;;;;;;;;;5007474;28;19920;-81
2023/01/12 08:39:30;;;;;;;;;;;;;;;;;;5007532;28;20304;-81
2023/01/12 08:41:56;;;;;;;;;;;;;;;;;;5007980;28;19922;-81
2023/01/12 08:44:22;;;;;;;;;;;;;;;;;;5007161;28;19927;-81
2023/01/12 08:46:48;;;;;;;;;;;;;;;;;;5009898;28;19929;-81
2023/01/12 08:49:14;;;;;;;;;;;;;;;;;;5026030;28;19967;-84
2023/01/12 08:51:39;;;;;;;;;;;;;;;;;;5006928;28;20295;-80
2023/01/12 08:54:05;;;;;;;;;;;;;;;;;;5023877;28;19935;-80
2023/01/12 08:56:31;;;;;;;;;;;;;;;;;;4995811;28;19927;-93
2023/01/12 08:58:57;;;;;;;;;;;;;;;;;;5007322;28;20261;-79
2023/01/12 09:01:23;;;;;;;;;;;;;;;;;;5006612;28;20005;-82
2023/01/12 09:03:49;;;;;;;;;;;;;;;;;;5006582;28;20472;-81
2023/01/12 09:06:15;;;;;;;;;;;;;;;;;;5011099;28;19924;-82
2023/01/12 09:08:41;;;;;;;;;;;;;;;;;;5007376;28;19948;-82
2023/01/12 09:11:07;;;;;;;;;;;;;;;;;;5007036;28;20348;-82
2023/01/12 09:13:33;;;;;;;;;;;;;;;;;;5022907;28;19935;-82
2023/01/12 09:15:59;;;;;;;;;;;;;;;;;;5007191;28;19994;-82
2023/01/12 09:18:25;;;;;;;;;;;;;;;;;;5006877;28;19925;-83
2023/01/12 09:20:51;;;;;;;;;;;;;;;;;;5007220;28;21383;-79
2023/01/12 09:23:18;;;;;;;;;;;;;;;;;;4999393;28;20301;-80
2023/01/12 09:25:43;;;;;;;;;;;;;;;;;;5026195;28;19944;-80
2023/01/12 09:28:09;;;;;;;;;;;;;;;;;;5009628;28;19947;-79
2023/01/12 09:30:36;;;;;;;;;;;;;;;;;;5011326;28;19924;-82
2023/01/12 09:33:01;;;;;;;;;;;;;;;;;;5010614;28;20298;-79
2023/01/12 09:35:27;;;;;;;;;;;;;;;;;;4996336;28;19924;-81
2023/01/12 09:37:53;;;;;;;;;;;;;;;;;;5017963;28;19924;-81
2023/01/12 09:40:19;;;;;;;;;;;;;;;;;;5011207;28;20712;-81
2023/01/12 09:48:18;;;;;;;;;;;;;;;;;;5026889;28;19983;-81
2023/01/12 09:50:44;;;;;;;;;;;;;;;;;;5011872;28;19924;-82
2023/01/12 09:53:10;;;;;;;;;;;;;;;;;;5010546;28;19982;-80
2023/01/12 09:55:36;;;;;;;;;;;;;;;;;;5027642;28;20027;-80
2023/01/12 09:58:02;;;;;;;;;;;;;;;;;;5011019;28;19924;-80
2023/01/12 10:00:28;;;;;;;;;;;;;;;;;;5011846;28;19963;-83
2023/01/12 10:02:54;;;;;;;;;;;;;;;;;;5011082;28;20366;-82
2023/01/12 10:05:20;;;;;;;;;;;;;;;;;;5025523;28;19921;-84
2023/01/12 10:07:46;;;;;;;;;;;;;;;;;;5039306;28;19952;-83
2023/01/12 10:10:11;;;;;;;;;;;;;;;;;;5030300;28;20189;-85
2023/01/12 10:12:40;;;;;;;;;;;;;;;;;;5014881;28;20511;-84
2023/01/12 10:15:06;;;;;;;;;;;;;;;;;;5018462;28;19968;-83
2023/01/12 10:17:32;;;;;;;;;;;;;;;;;;5013865;28;19967;-84
2023/01/12 10:19:58;;;;;;;;;;;;;;;;;;5011349;28;19921;-80
2023/01/12 10:22:37;;;;;;;;;;;;;;;;;;5028006;28;19925;-83
2023/01/12 10:25:03;;;;;;;;;;;;;;;;;;5011835;28;19950;-81
2023/01/12 10:27:29;;;;;;;;;;;;;;;;;;5018123;28;19948;-84
2023/01/12 10:29:54;;;;;;;;;;;;;;;;;;5028526;28;19925;-82
2023/01/12 10:32:20;;;;;;;;;;;;;;;;;;4998864;28;19920;-83
2023/01/12 10:34:46;;;;;;;;;;;;;;;;;;5020829;28;20091;-83
2023/01/12 10:37:12;;;;;;;;;;;;;;;;;;5020291;28;21180;-92
2023/01/12 10:39:38;;;;;;;;;;;;;;;;;;5016143;28;19921;-81
2023/01/12 10:42:04;;;;;;;;;;;;;;;;;;5010292;28;20388;-79
2023/01/12 10:44:30;;;;;;;;;;;;;;;;;;5009430;28;19917;-81
2023/01/12 10:46:56;;;;;;;;;;;;;;;;;;5009681;28;19936;-81
2023/01/12 10:49:22;;;;;;;;;;;;;;;;;;5009433;28;19955;-79
2023/01/12 10:51:48;;;;;;;;;;;;;;;;;;5008217;28;19925;-78
2023/01/12 10:54:16;;;;;;;;;;;;;;;;;;5008724;28;20000;-85
2023/01/12 10:56:42;;;;;;;;;;;;;;;;;;4999104;28;19959;-78
2023/01/12 10:59:08;;;;;;;;;;;;;;;;;;5009896;28;19925;-79
2023/01/12 11:01:34;;;;;;;;;;;;;;;;;;5009362;28;20174;-76
2023/01/12 11:04:00;;;;;;;;;;;;;;;;;;5014131;28;20386;-77
2023/01/12 11:06:26;;;;;;;;;;;;;;;;;;5023924;28;19932;-81
2023/01/12 11:08:52;;;;;;;;;;;;;;;;;;5027996;28;19999;-78
2023/01/12 11:11:18;;;;;;;;;;;;;;;;;;5008330;28;19931;-78
2023/01/12 11:13:44;;;;;;;;;;;;;;;;;;5008791;28;19928;-78
2023/01/12 11:16:10;;;;;;;;;;;;;;;;;;4992193;28;19932;-77
2023/01/12 11:18:36;;;;;;;;;;;;;;;;;;5006966;28;20362;-86
2023/01/12 11:21:02;;;;;;;;;;;;;;;;;;5009895;28;19925;-77
2023/01/12 11:23:28;;;;;;;;;;;;;;;;;;5006802;28;19920;-77
2023/01/12 11:25:54;;;;;;;;;;;;;;;;;;5023136;28;19932;-77
2023/01/12 11:28:20;;;;;;;;;;;;;;;;;;5006190;28;20035;-77
2023/01/12 11:30:46;;;;;;;;;;;;;;;;;;5001904;28;19929;-77
2023/01/12 11:33:15;;;;;;;;;;;;;;;;;;5007438;28;19986;-77
2023/01/12 11:35:41;;;;;;;;;;;;;;;;;;5006260;28;19920;-77
2023/01/12 11:38:07;;;;;;;;;;;;;;;;;;5006993;28;19947;-77
2023/01/12 11:40:33;;;;;;;;;;;;;;;;;;5006555;28;19921;-77
2023/01/12 11:45:44;;;;;;;;;;;;;;;;;;5022923;28;19952;-77
2023/01/12 11:48:13;;;;;;;;;;;;;;;;;;5023615;28;20043;-76
2023/01/12 11:50:39;;;;;;;;;;;;;;;;;;4988902;28;19977;-77
2023/01/12 11:53:06;;;;;;;;;;;;;;;;;;4996692;28;19936;-77
2023/01/12 11:55:32;;;;;;;;;;;;;;;;;;5006279;28;19983;-76
2023/01/12 11:57:58;;;;;;;;;;;;;;;;;;5014827;28;20056;-84
2023/01/12 12:00:24;;;;;;;;;;;;;;;;;;4990644;28;19929;-85
2023/01/12 12:02:50;;;;;;;;;;;;;;;;;;5011923;28;20022;-85
2023/01/12 12:05:16;;;;;;;;;;;;;;;;;;5027123;28;19920;-85
2023/01/12 12:07:42;;;;;;;;;;;;;;;;;;4998030;28;19936;-85
2023/01/12 12:10:08;;;;;;;;;;;;;;;;;;5008215;28;19924;-91
2023/01/12 12:12:34;;;;;;;;;;;;;;;;;;5008088;28;19928;-86
2023/01/12 12:15:01;;;;;;;;;;;;;;;;;;5008758;28;20023;-76
2023/01/12 12:17:27;;;;;;;;;;;;;;;;;;4995744;28;20278;-77
2023/01/12 12:19:53;;;;;;;;;;;;;;;;;;4995840;28;20298;-77
2023/01/12 12:22:19;;;;;;;;;;;;;;;;;;5006429;28;19999;-76
2023/01/12 12:24:45;;;;;;;;;;;;;;;;;;5005584;28;19925;-77
2023/01/12 12:27:11;;;;;;;;;;;;;;;;;;5007594;28;19932;-77
2023/01/12 12:29:37;;;;;;;;;;;;;;;;;;5005744;28;19928;-77
2023/01/12 12:32:03;;;;;;;;;;;;;;;;;;5004920;28;19929;-78
2023/01/12 12:34:29;;;;;;;;;;;;;;;;;;4987386;28;19927;-82
2023/01/12 12:36:55;;;;;;;;;;;;;;;;;;4999308;28;19921;-83
2023/01/12 12:39:21;;;;;;;;;;;;;;;;;;5007473;28;20151;-80
2023/01/12 12:47:17;;;;;;;;;;;;;;;;;;5025138;28;20563;-79
2023/01/12 12:49:46;;;;;;;;;;;;;;;;;;5025833;28;20580;-80
2023/01/12 12:52:12;;;;;;;;;;;;;;;;;;5006073;28;20675;-79
2023/01/12 12:54:38;;;;;;;;;;;;;;;;;;5005524;28;19964;-81
2023/01/12 12:57:04;;;;;;;;;;;;;;;;;;5007098;28;19935;-80
2023/01/12 12:59:29;;;;;;;;;;;;;;;;;;5006055;28;19948;-80
2023/01/12 13:01:55;;;;;;;;;;;;;;;;;;5005281;28;19936;-78
2023/01/12 13:04:21;;;;;;;;;;;;;;;;;;5006577;28;20537;-79
2023/01/12 13:06:48;;;;;;;;;;;;;;;;;;5011075;28;19924;-79
2023/01/12 13:09:14;;;;;;;;;;;;;;;;;;5006674;28;20605;-79
2023/01/12 13:11:40;;;;;;;;;;;;;;;;;;5005743;28;20461;-79
2023/01/12 13:14:06;;;;;;;;;;;;;;;;;;5005724;28;20379;-79
2023/01/12 13:16:32;;;;;;;;;;;;;;;;;;5018510;28;19929;-80
2023/01/12 13:18:58;;;;;;;;;;;;;;;;;;5003777;28;19925;-79
2023/01/12 13:21:24;;;;;;;;;;;;;;;;;;5003466;28;19932;-79
2023/01/12 13:23:50;;;;;;;;;;;;;;;;;;5003199;28;21581;-80
2023/01/12 13:26:16;;;;;;;;;;;;;;;;;;5003589;28;19920;-80
2023/01/12 13:28:42;;;;;;;;;;;;;;;;;;5003473;28;19980;-84
2023/01/12 13:31:11;;;;;;;;;;;;;;;;;;4987457;28;19936;-77
2023/01/12 13:33:37;;;;;;;;;;;;;;;;;;4987362;28;20003;-77
2023/01/12 13:36:03;;;;;;;;;;;;;;;;;;4991737;28;19929;-77
2023/01/12 13:38:30;;;;;;;;;;;;;;;;;;5001834;28;19933;-77
2023/01/12 13:40:56;;;;;;;;;;;;;;;;;;5003539;28;19920;-77
2023/01/12 13:43:22;;;;;;;;;;;;;;;;;;5003486;28;19928;-76
2023/01/12 13:45:49;;;;;;;;;;;;;;;;;;5002878;28;19948;-77
2023/01/12 13:48:15;;;;;;;;;;;;;;;;;;5004298;28;19933;-76
2023/01/12 13:50:41;;;;;;;;;;;;;;;;;;5003030;28;19925;-76
2023/01/12 13:53:07;;;;;;;;;;;;;;;;;;4987035;28;20049;-75
2023/01/12 13:55:34;;;;;;;;;;;;;;;;;;5002562;28;20395;-75
2023/01/12 13:58:00;;;;;;;;;;;;;;;;;;5008492;28;20056;-75
2023/01/12 14:00:26;;;;;;;;;;;;;;;;;;5003819;28;19940;-75
2023/01/12 14:02:52;;;;;;;;;;;;;;;;;;5003152;28;19925;-75
2023/01/12 14:05:18;;;;;;;;;;;;;;;;;;5003271;28;19928;-76
2023/01/12 14:07:44;;;;;;;;;;;;;;;;;;5001579;28;19925;-76
2023/01/12 14:10:10;;;;;;;;;;;;;;;;;;5002527;28;20691;-77
2023/01/12 14:12:36;;;;;;;;;;;;;;;;;;5003306;28;19921;-78
2023/01/12 14:17:56;;;;;;;;;;;;;;;;;;5024739;28;20012;-80
2023/01/12 14:20:22;;;;;;;;;;;;;;;;;;4996578;28;20087;-82
2023/01/12 14:22:48;;;;;;;;;;;;;;;;;;4992430;28;20023;-80
2023/01/12 14:25:14;;;;;;;;;;;;;;;;;;5026987;28;20270;-81
2023/01/12 14:27:40;;;;;;;;;;;;;;;;;;5011721;28;19928;-81
2023/01/12 14:30:06;;;;;;;;;;;;;;;;;;4999012;28;19928;-81
2023/01/12 14:32:32;;;;;;;;;;;;;;;;;;5013170;28;21385;-89
2023/01/12 14:34:58;;;;;;;;;;;;;;;;;;5012344;28;19982;-89
2023/01/12 14:37:24;;;;;;;;;;;;;;;;;;5012276;28;20011;-89
2023/01/12 14:39:50;;;;;;;;;;;;;;;;;;5031257;28;19986;-88
2023/01/12 14:47:45;;;;;;;;;;;;;;;;;;5033306;28;21559;-88
2023/01/12 14:50:11;;;;;;;;;;;;;;;;;;5033028;28;19928;-89
2023/01/12 14:52:37;;;;;;;;;;;;;;;;;;5034652;28;20287;-88
2023/01/12 14:55:03;;;;;;;;;;;;;;;;;;5037900;28;19928;-89
2023/01/12 14:57:29;;;;;;;;;;;;;;;;;;5049898;28;21125;-89
2023/01/12 14:59:54;;;;;;;;;;;;;;;;;;5014594;28;19924;-83
2023/01/12 15:02:20;;;;;;;;;;;;;;;;;;5017756;28;19921;-84
2023/01/12 15:04:46;;;;;;;;;;;;;;;;;;5019903;28;19939;-86
2023/01/12 15:07:12;;;;;;;;;;;;;;;;;;5028827;28;20219;-85
2023/01/12 15:09:38;;;;;;;;;;;;;;;;;;5007043;28;19971;-87
2023/01/12 15:12:04;;;;;;;;;;;;;;;;;;5032824;28;19924;-84
2023/01/12 15:14:30;;;;;;;;;;;;;;;;;;5030093;28;19921;-85
2023/01/12 15:27:55;;;;;;;;;;;;;;;;;;5014687;28;19967;-80
2023/01/12 15:30:21;;;;;;;;;;;;;;;;;;4995392;28;19999;-80
2023/01/12 15:32:47;;;;;;;;;;;;;;;;;;5023936;28;20010;-81
2023/01/12 15:35:14;;;;;;;;;;;;;;;;;;5006529;28;19920;-81
2023/01/12 15:37:40;;;;;;;;;;;;;;;;;;5013687;28;19921;-81
2023/01/12 15:40:06;;;;;;;;;;;;;;;;;;4994311;28;19925;-81
2023/01/12 15:42:33;;;;;;;;;;;;;;;;;;5006998;28;19929;-81
2023/01/12 15:44:59;;;;;;;;;;;;;;;;;;5029611;28;19920;-86
2023/01/12 15:47:25;;;;;;;;;;;;;;;;;;5009650;28;20011;-86
2023/01/12 15:49:52;;;;;;;;;;;;;;;;;;5009320;28;19925;-86
2023/01/12 15:52:18;;;;;;;;;;;;;;;;;;5009565;28;19947;-88
2023/01/12 15:54:44;;;;;;;;;;;;;;;;;;5010156;28;20442;-86
2023/01/12 15:57:10;;;;;;;;;;;;;;;;;;4994667;28;20444;-86
2023/01/12 15:59:36;;;;;;;;;;;;;;;;;;5009604;28;21281;-87
2023/01/12 16:02:02;;;;;;;;;;;;;;;;;;5008175;28;19943;-86
2023/01/12 16:04:28;;;;;;;;;;;;;;;;;;5024542;28;19968;-81
2023/01/12 16:06:55;;;;;;;;;;;;;;;;;;5008604;28;20672;-80
2023/01/12 16:09:20;;;;;;;;;;;;;;;;;;4992996;28;19921;-80
2023/01/12 16:11:46;;;;;;;;;;;;;;;;;;4996722;28;20341;-79
2023/01/12 16:14:12;;;;;;;;;;;;;;;;;;5024042;28;19924;-79
2023/01/12 16:16:38;;;;;;;;;;;;;;;;;;5006999;28;19932;-77
2023/01/12 16:19:08;;;;;;;;;;;;;;;;;;5025387;28;20023;-77
2023/01/12 16:21:34;;;;;;;;;;;;;;;;;;5026400;28;20856;-78
2023/01/12 16:24:00;;;;;;;;;;;;;;;;;;5025635;28;19921;-77
2023/01/12 16:26:26;;;;;;;;;;;;;;;;;;5011538;28;20377;-78
2023/01/12 16:28:52;;;;;;;;;;;;;;;;;;5006531;28;19929;-78
2023/01/12 16:31:18;;;;;;;;;;;;;;;;;;5006361;28;20412;-80
2023/01/12 16:33:44;;;;;;;;;;;;;;;;;;5025301;28;20277;-82
2023/01/12 16:36:10;;;;;;;;;;;;;;;;;;5005547;28;19952;-80
2023/01/12 16:38:36;;;;;;;;;;;;;;;;;;4995449;28;19920;-80
2023/01/12 16:41:05;;;;;;;;;;;;;;;;;;5027179;28;20393;-81
2023/01/12 16:43:31;;;;;;;;;;;;;;;;;;4994480;28;19932;-82
2023/01/12 16:45:57;;;;;;;;;;;;;;;;;;5012435;28;19925;-80
2023/01/12 16:48:23;;;;;;;;;;;;;;;;;;5005432;28;20245;-80
2023/01/12 16:50:49;;;;;;;;;;;;;;;;;;5005348;28;19948;-78
2023/01/12 16:53:15;;;;;;;;;;;;;;;;;;5022065;28;19925;-80
2023/01/12 16:55:41;;;;;;;;;;;;;;;;;;5006302;28;19928;-79
2023/01/12 16:58:07;;;;;;;;;;;;;;;;;;5005758;28;19928;-79
2023/01/12 17:00:33;;;;;;;;;;;;;;;;;;5006115;28;19924;-78
2023/01/12 17:03:01;;;;;;;;;;;;;;;;;;5004631;28;19974;-79
2023/01/12 17:05:27;;;;;;;;;;;;;;;;;;5005593;28;20303;-79
2023/01/12 17:07:53;;;;;;;;;;;;;;;;;;5006044;28;19932;-79
2023/01/12 17:10:19;;;;;;;;;;;;;;;;;;5011962;28;19925;-78
2023/01/12 17:12:45;;;;;;;;;;;;;;;;;;5005718;28;21699;-78
2023/01/12 17:15:10;;;;;;;;;;;;;;;;;;4987855;28;21129;-80
2023/01/12 17:17:36;;;;;;;;;;;;;;;;;;5001426;28;20614;-80
2023/01/12 17:20:02;;;;;;;;;;;;;;;;;;5009449;28;19921;-79
2023/01/12 17:22:30;;;;;;;;;;;;;;;;;;5025826;28;19956;-81
2023/01/12 17:24:56;;;;;;;;;;;;;;;;;;5005965;28;20499;-76
2023/01/12 17:27:22;;;;;;;;;;;;;;;;;;5024612;28;19925;-77
2023/01/12 17:29:48;;;;;;;;;;;;;;;;;;5025347;28;20290;-77